createdAt,value
2022-12-19T00:01:35.226Z,25.50
2022-12-19T00:06:43.405Z,24.75
2022-12-19T00:11:48.423Z,25.50
2022-12-19T00:16:51.212Z,23.00
2022-12-19T00:21:55.838Z,23.50
2022-12-19T00:26:58.657Z,21.75
2022-12-19T00:32:03.950Z,23.00
2022-12-19T00:37:08.060Z,23.00
2022-12-19T00:42:10.943Z,25.00
2022-12-19T00:47:13.666Z,24.75
2022-12-19T00:52:17.803Z,21.40
2022-12-19T00:57:20.548Z,22.00
2022-12-19T01:02:23.499Z,24.75
2022-12-19T01:07:27.647Z,21.25
2022-12-19T01:12:48.724Z,22.00
2022-12-19T01:17:51.729Z,24.00
2022-12-19T01:22:55.957Z,22.80
2022-12-19T01:27:58.801Z,21.80
2022-12-19T01:33:01.665Z,21.20
2022-12-19T01:38:09.162Z,20.60
2022-12-19T01:43:13.995Z,21.00
2022-12-19T01:48:20.306Z,21.20
2022-12-19T01:53:24.667Z,20.75
2022-12-19T01:58:27.415Z,21.00
2022-12-19T02:03:30.418Z,21.25
2022-12-19T02:08:34.537Z,20.60
2022-12-19T02:13:37.762Z,23.00
2022-12-19T02:18:45.470Z,22.60
2022-12-19T02:24:30.449Z,19.80
2022-12-19T02:29:48.806Z,19.00
2022-12-19T02:34:55.805Z,20.00
2022-12-19T02:40:01.831Z,22.00
2022-12-19T02:45:06.467Z,19.60
2022-12-19T02:50:10.961Z,21.40
2022-12-19T02:55:15.943Z,19.60
2022-12-19T03:00:19.790Z,22.00
2022-12-19T03:05:26.132Z,21.20
2022-12-19T03:10:31.953Z,19.80
2022-12-19T03:15:34.820Z,21.00
2022-12-19T03:20:47.099Z,22.60
2022-12-19T03:25:51.341Z,19.40
2022-12-19T03:30:54.150Z,19.60
2022-12-19T03:35:58.340Z,18.20
2022-12-19T03:41:02.290Z,20.00
2022-12-19T03:46:07.633Z,18.80
2022-12-19T03:51:15.655Z,20.80
2022-12-19T03:56:21.244Z,19.60
2022-12-19T04:01:24.333Z,20.00
2022-12-19T04:06:29.512Z,19.00
2022-12-19T04:11:36.896Z,18.20
2022-12-19T04:16:41.238Z,19.40
2022-12-19T04:21:48.168Z,19.40
2022-12-19T04:26:51.146Z,19.40
2022-12-19T04:31:53.927Z,19.80
2022-12-19T04:36:58.119Z,17.20
2022-12-19T04:42:00.859Z,18.00
2022-12-19T04:47:03.629Z,18.20
2022-12-19T04:52:08.010Z,18.80
2022-12-19T04:57:10.799Z,18.00
2022-12-19T05:02:13.628Z,16.60
2022-12-19T05:07:25.571Z,17.00
2022-12-19T05:12:29.506Z,17.00
2022-12-19T05:17:32.207Z,16.80
2022-12-19T05:22:36.511Z,16.40
2022-12-19T05:27:39.307Z,18.00
2022-12-19T05:32:42.076Z,15.80
2022-12-19T05:37:46.265Z,16.80
2022-12-19T05:42:49.010Z,16.00
2022-12-19T05:47:51.846Z,15.00
2022-12-19T05:52:56.066Z,16.60
2022-12-19T05:57:58.802Z,15.80
2022-12-19T06:03:01.672Z,14.80
2022-12-19T06:08:06.546Z,18.00
2022-12-19T06:13:09.398Z,15.20
2022-12-19T06:18:12.325Z,15.60
2022-12-19T06:23:16.595Z,15.40
2022-12-19T06:28:20.095Z,15.00
2022-12-19T06:33:23.201Z,14.80
2022-12-19T06:38:27.480Z,15.00
2022-12-19T06:43:30.613Z,15.00
2022-12-19T06:48:33.429Z,15.40
2022-12-19T06:53:37.599Z,14.80
2022-12-19T06:58:40.446Z,15.40
2022-12-19T07:03:43.198Z,14.00
2022-12-19T07:08:47.640Z,15.00
2022-12-19T07:13:50.459Z,14.00
2022-12-19T07:18:53.393Z,16.80
2022-12-19T07:23:57.584Z,15.00
2022-12-19T07:29:00.393Z,15.00
2022-12-19T07:34:03.176Z,14.00
2022-12-19T07:39:07.439Z,14.40
2022-12-19T07:44:13.148Z,12.40
2022-12-19T07:49:22.325Z,12.80
2022-12-19T07:54:26.930Z,14.00
2022-12-19T07:59:34.388Z,26.80
2022-12-19T08:04:41.606Z,28.80
2022-12-19T08:09:45.736Z,28.80
2022-12-19T08:14:51.609Z,36.25
2022-12-19T08:19:58.440Z,28.80
2022-12-19T08:25:02.670Z,31.25
2022-12-19T08:30:06.520Z,27.00
2022-12-19T08:35:11.925Z,24.40
2022-12-19T08:40:16.062Z,25.00
2022-12-19T08:45:19.245Z,26.60
2022-12-19T08:50:22.175Z,24.80
2022-12-19T08:55:26.513Z,25.60
2022-12-19T09:00:31.062Z,23.75
2022-12-19T09:06:03.649Z,22.80
2022-12-19T09:11:00.653Z,22.00
2022-12-19T09:16:03.868Z,22.00
2022-12-19T09:21:07.793Z,23.25
2022-12-19T09:26:13.178Z,20.60
2022-12-19T09:31:17.033Z,19.80
2022-12-19T09:36:20.831Z,23.00
2022-12-19T09:41:42.525Z,19.60
2022-12-19T09:46:49.049Z,19.20
2022-12-19T09:51:58.909Z,19.00
2022-12-19T09:57:05.178Z,19.00
2022-12-19T10:02:21.056Z,19.40
2022-12-19T10:07:59.699Z,19.40
2022-12-19T10:12:59.648Z,17.60
2022-12-19T10:18:15.455Z,16.00
2022-12-19T10:23:28.043Z,17.20
2022-12-19T10:28:47.922Z,17.60
2022-12-19T10:33:54.607Z,16.40
2022-12-19T10:38:58.938Z,16.40
2022-12-19T10:44:05.773Z,17.00
2022-12-19T10:49:18.520Z,18.60
2022-12-19T10:54:21.579Z,14.80
2022-12-19T10:59:25.830Z,18.00
2022-12-19T11:04:31.008Z,16.60
2022-12-19T11:09:37.790Z,15.20
2022-12-19T11:21:53.468Z,18.40
2022-12-19T11:29:34.683Z,15.80
2022-12-19T11:30:44.124Z,17.60
2022-12-19T11:36:31.937Z,15.60
2022-12-19T11:41:36.503Z,16.20
2022-12-19T11:46:43.336Z,15.60
2022-12-19T11:51:49.549Z,12.40
2022-12-19T11:56:52.513Z,14.60
2022-12-19T12:02:33.938Z,15.80
2022-12-19T12:08:11.585Z,12.80
2022-12-19T12:20:34.867Z,11.40
2022-12-19T12:31:04.287Z,14.00
2022-12-19T12:31:53.908Z,13.40
2022-12-19T12:31:56.041Z,13.40
2022-12-19T12:35:46.391Z,14.60
2022-12-19T12:40:35.708Z,13.40
2022-12-19T12:45:39.895Z,12.80
2022-12-19T12:50:45.798Z,14.60
2022-12-19T12:55:51.656Z,12.20
2022-12-19T13:01:09.010Z,13.40
2022-12-19T13:06:25.844Z,13.80
2022-12-19T13:11:56.942Z,12.40
2022-12-19T13:16:59.857Z,13.40
2022-12-19T13:22:22.859Z,19.60
2022-12-19T13:27:41.252Z,25.00
2022-12-19T13:33:10.155Z,19.00
2022-12-19T13:39:54.164Z,18.00
2022-12-19T13:43:47.525Z,17.20
2022-12-19T13:48:51.551Z,18.20
2022-12-19T13:53:59.495Z,18.00
2022-12-19T13:59:03.756Z,22.80
2022-12-19T14:04:08.825Z,23.20
2022-12-19T14:11:30.260Z,20.80
2022-12-19T14:15:13.123Z,24.20
2022-12-19T14:22:01.415Z,23.00
2022-12-19T14:28:19.134Z,20.80
2022-12-19T14:31:10.444Z,19.40
2022-12-19T14:36:18.612Z,22.00
2022-12-19T14:42:00.630Z,19.80
2022-12-19T14:52:51.159Z,20.00
2022-12-19T14:54:34.887Z,19.80
2022-12-19T14:58:54.242Z,19.60
2022-12-19T15:03:24.149Z,18.80
2022-12-19T15:10:57.192Z,19.60
2022-12-19T15:14:53.359Z,19.40
2022-12-19T15:19:18.323Z,19.00
2022-12-19T15:24:21.135Z,19.20
2022-12-19T15:29:26.144Z,18.20
2022-12-19T15:34:43.043Z,17.20
2022-12-19T15:39:51.613Z,18.80
2022-12-19T15:44:57.372Z,19.80
2022-12-19T15:50:02.919Z,19.40
2022-12-19T15:55:07.528Z,16.80
2022-12-19T16:00:18.494Z,17.40
2022-12-19T16:05:21.980Z,17.40
2022-12-19T16:10:24.919Z,17.60
2022-12-19T16:15:30.672Z,18.00
2022-12-19T16:20:36.038Z,17.60
2022-12-19T16:25:40.072Z,16.80
2022-12-19T16:30:44.685Z,16.80
2022-12-19T16:36:05.267Z,17.20
2022-12-19T16:41:11.316Z,15.00
2022-12-19T16:46:19.246Z,17.20
2022-12-19T16:51:23.429Z,15.20
2022-12-19T16:56:28.591Z,17.80
2022-12-19T17:01:33.127Z,14.80
2022-12-19T17:06:36.140Z,17.60
2022-12-19T17:11:45.939Z,15.40
2022-12-19T17:16:53.444Z,19.80
2022-12-19T17:21:56.433Z,20.80
2022-12-19T17:26:59.622Z,22.00
2022-12-19T17:32:04.339Z,18.20
2022-12-19T17:37:07.148Z,19.60
2022-12-19T17:42:14.686Z,21.80
2022-12-19T17:47:19.613Z,20.00
2022-12-19T17:52:22.796Z,22.60
2022-12-19T17:57:26.904Z,21.80
2022-12-19T18:02:31.443Z,21.60
2022-12-19T18:07:34.393Z,19.40
2022-12-19T18:12:37.200Z,19.40
2022-12-19T18:17:41.472Z,20.00
2022-12-19T18:22:44.348Z,18.60
2022-12-19T18:27:47.418Z,19.60
2022-12-19T18:32:53.749Z,20.40
2022-12-19T18:37:56.630Z,19.00
2022-12-19T18:42:59.387Z,19.40
2022-12-19T18:48:05.130Z,18.60
2022-12-19T18:53:11.917Z,20.00
2022-12-19T18:58:15.327Z,19.00
2022-12-19T19:03:20.311Z,18.00
2022-12-19T19:08:26.148Z,17.60
2022-12-19T19:13:39.743Z,18.20
2022-12-19T19:18:44.000Z,19.40
2022-12-19T19:23:48.877Z,18.40
2022-12-19T19:28:52.756Z,18.80
2022-12-19T19:34:00.161Z,18.80
2022-12-19T19:39:03.454Z,19.00
2022-12-19T19:44:06.489Z,18.00
2022-12-19T19:49:10.871Z,18.20
2022-12-19T19:54:14.057Z,17.60
2022-12-19T19:59:17.093Z,16.80
2022-12-19T20:04:21.348Z,16.40
2022-12-19T20:09:24.141Z,16.00
2022-12-19T20:14:27.735Z,15.80
2022-12-19T20:19:31.845Z,16.40
2022-12-19T20:24:34.820Z,17.20
2022-12-19T20:29:37.663Z,15.40
2022-12-19T20:34:42.049Z,16.40
2022-12-19T20:39:44.905Z,16.40
2022-12-19T20:44:48.066Z,16.40
2022-12-19T20:49:52.256Z,16.20
2022-12-19T20:54:55.073Z,16.60
2022-12-19T20:59:57.926Z,19.00
2022-12-19T21:05:02.236Z,17.80
2022-12-19T21:10:05.869Z,21.40
2022-12-19T21:15:09.060Z,17.80
2022-12-19T21:20:13.748Z,15.60
2022-12-19T21:25:16.971Z,18.20
2022-12-19T21:30:20.057Z,15.40
2022-12-19T21:35:24.197Z,16.60
2022-12-19T21:40:27.008Z,18.40
2022-12-19T21:45:30.217Z,17.20
2022-12-19T21:50:34.370Z,14.80
2022-12-19T21:55:37.247Z,18.40
2022-12-19T22:00:40.096Z,17.80
2022-12-19T22:05:44.306Z,15.80
2022-12-19T22:10:47.656Z,16.80
2022-12-19T22:15:50.575Z,15.20
2022-12-19T22:20:57.539Z,15.20
2022-12-19T22:26:04.548Z,15.00
2022-12-19T22:31:15.997Z,15.40
2022-12-19T22:36:27.334Z,15.80
2022-12-19T22:41:31.634Z,15.00
2022-12-19T22:46:35.164Z,16.00
2022-12-19T22:51:39.755Z,13.60
2022-12-19T22:56:42.669Z,15.40
2022-12-19T23:01:45.608Z,14.60
2022-12-19T23:06:49.900Z,15.60
2022-12-19T23:11:52.703Z,14.00
2022-12-19T23:16:55.542Z,12.00
2022-12-19T23:21:59.974Z,15.00
2022-12-19T23:27:02.882Z,14.00
2022-12-19T23:32:06.129Z,14.60
2022-12-19T23:37:11.823Z,14.80
2022-12-19T23:42:15.137Z,15.00
2022-12-19T23:47:18.107Z,15.40
2022-12-19T23:52:22.769Z,15.00
2022-12-19T23:57:26.986Z,12.60
